createdAt,value
2023-04-16T00:00:28.666Z,97560.63
2023-04-16T00:02:56.009Z,97564.34
2023-04-16T00:05:23.449Z,97557.94
2023-04-16T00:07:51.916Z,97554.47
2023-04-16T00:10:19.160Z,97552.56
2023-04-16T00:12:46.321Z,97542.09
2023-04-16T00:15:13.473Z,97551.31
2023-04-16T00:17:40.628Z,97541.06
2023-04-16T00:20:09.274Z,97542.78
2023-04-16T00:22:36.404Z,97541.09
2023-04-16T00:25:03.634Z,97547.09
2023-04-16T00:27:30.769Z,97547.09
2023-04-16T00:29:58.249Z,97550.91
2023-04-16T00:32:25.781Z,97540.41
2023-04-16T00:34:52.943Z,97539.72
2023-04-16T00:37:20.011Z,97546.91
2023-04-16T00:39:47.147Z,97550.63
2023-04-16T00:42:14.325Z,97542.53
2023-04-16T00:44:41.479Z,97539.66
2023-04-16T00:47:09.173Z,97528.88
2023-04-16T00:49:36.963Z,97529.34
2023-04-16T00:52:04.683Z,97529.25
2023-04-16T00:54:32.346Z,97535.03
2023-04-16T00:57:00.187Z,97534.25
2023-04-16T00:59:28.083Z,97530.16
2023-04-16T01:01:55.388Z,97528.78
2023-04-16T01:04:22.918Z,97538.88
2023-04-16T01:06:51.389Z,97533.09
2023-04-16T01:09:18.697Z,97530.97
2023-04-16T01:11:46.088Z,97539.34
2023-04-16T01:14:13.309Z,97534.53
2023-04-16T01:16:40.349Z,97529.31
2023-04-16T01:19:07.851Z,97532.38
2023-04-16T01:21:35.141Z,97538.50
2023-04-16T01:24:05.700Z,97533.28
2023-04-16T01:26:33.718Z,97545.28
2023-04-16T01:29:00.943Z,97538.50
2023-04-16T01:31:28.086Z,97541.56
2023-04-16T01:34:07.987Z,97536.66
2023-04-16T01:36:35.557Z,97533.09
2023-04-16T01:39:02.737Z,97543.59
2023-04-16T01:41:29.846Z,97529.22
2023-04-16T01:43:56.934Z,97538.03
2023-04-16T01:46:29.092Z,97532.94
2023-04-16T01:48:57.149Z,97534.47
2023-04-16T01:51:24.408Z,97536.84
2023-04-16T01:53:51.682Z,97541.06
2023-04-16T01:56:18.942Z,97532.94
2023-04-16T01:58:48.614Z,97527.00
2023-04-16T02:01:17.627Z,97538.69
2023-04-16T02:03:46.091Z,97532.09
2023-04-16T02:06:13.585Z,97531.09
2023-04-16T02:08:41.824Z,97529.56
2023-04-16T02:11:09.093Z,97533.78
2023-04-16T02:13:36.746Z,97539.38
2023-04-16T02:16:04.143Z,97513.47
2023-04-16T02:18:44.031Z,97541.22
2023-04-16T02:21:13.369Z,97537.34
2023-04-16T02:23:41.701Z,97539.53
2023-04-16T02:26:08.913Z,97544.59
2023-04-16T02:28:36.039Z,97549.69
2023-04-16T02:31:03.375Z,97545.63
2023-04-16T02:33:36.625Z,97544.44
2023-04-16T02:36:04.307Z,97548.34
2023-04-16T02:38:31.503Z,97542.56
2023-04-16T02:40:59.660Z,97542.06
2023-04-16T02:43:26.852Z,97540.88
2023-04-16T02:45:53.969Z,97535.97
2023-04-16T02:48:21.261Z,97542.41
2023-04-16T02:50:48.369Z,97541.06
2023-04-16T02:53:15.670Z,97539.38
2023-04-16T02:55:47.344Z,97532.25
2023-04-16T02:58:14.429Z,97514.63
2023-04-16T03:00:41.613Z,97534.69
2023-04-16T03:03:08.794Z,97544.38
2023-04-16T03:05:36.415Z,97549.25
2023-04-16T03:08:04.937Z,97548.13
2023-04-16T03:10:32.627Z,97544.59
2023-04-16T03:12:59.780Z,97541.06
2023-04-16T03:15:27.592Z,97543.13
2023-04-16T03:17:55.087Z,97550.69
2023-04-16T03:20:22.243Z,97541.97
2023-04-16T03:22:49.983Z,97540.06
2023-04-16T03:25:17.176Z,97546.53
2023-04-16T03:27:44.508Z,97543.44
2023-04-16T03:30:13.504Z,97548.59
2023-04-16T03:32:41.125Z,97544.31
2023-04-16T03:35:09.276Z,97536.19
2023-04-16T03:37:37.692Z,97543.44
2023-04-16T03:40:07.662Z,97546.06
2023-04-16T03:42:34.981Z,97538.16
2023-04-16T03:45:02.938Z,97537.13
2023-04-16T03:47:31.670Z,97540.88
2023-04-16T03:50:02.301Z,97531.91
2023-04-16T03:52:29.540Z,97547.34
2023-04-16T03:54:57.091Z,97548.72
2023-04-16T03:57:27.199Z,97538.75
2023-04-16T03:59:58.533Z,97553.13
2023-04-16T04:02:28.409Z,97555.91
2023-04-16T04:04:55.709Z,97559.25
2023-04-16T04:07:23.606Z,97555.38
2023-04-16T04:09:51.729Z,97554.16
2023-04-16T04:12:18.843Z,97557.94
2023-04-16T04:14:46.731Z,97558.44
2023-04-16T04:17:13.893Z,97559.31
2023-04-16T04:19:47.256Z,97566.50
2023-04-16T04:22:21.967Z,97571.19
2023-04-16T04:24:49.145Z,97574.25
2023-04-16T04:27:16.361Z,97566.66
2023-04-16T04:29:43.475Z,97566.81
2023-04-16T04:32:11.388Z,97571.03
2023-04-16T04:34:38.545Z,97581.09
2023-04-16T04:37:07.157Z,97590.19
2023-04-16T04:39:34.248Z,97572.13
2023-04-16T04:42:03.563Z,97580.56
2023-04-16T04:44:31.040Z,97596.13
2023-04-16T04:46:58.194Z,97581.41
2023-04-16T04:49:25.356Z,97582.25
2023-04-16T04:51:53.203Z,97578.59
2023-04-16T04:54:21.298Z,97584.69
2023-04-16T04:56:48.470Z,97591.72
2023-04-16T04:59:15.724Z,97598.69
2023-04-16T05:01:42.964Z,97590.50
2023-04-16T05:04:10.064Z,97596.78
2023-04-16T05:06:37.223Z,97591.72
2023-04-16T05:09:04.516Z,97591.38
2023-04-16T05:11:31.905Z,97588.53
2023-04-16T05:13:59.017Z,97598.19
2023-04-16T05:16:26.270Z,97601.56
2023-04-16T05:18:53.408Z,97601.41
2023-04-16T05:21:20.539Z,97597.88
2023-04-16T05:23:47.660Z,97603.91
2023-04-16T05:26:14.745Z,97608.19
2023-04-16T05:28:41.812Z,97614.16
2023-04-16T05:31:09.004Z,97608.25
2023-04-16T05:33:36.204Z,97615.53
2023-04-16T05:36:03.575Z,97617.56
2023-04-16T05:38:30.759Z,97621.28
2023-04-16T05:40:58.996Z,97623.16
2023-04-16T05:43:26.084Z,97622.47
2023-04-16T05:45:53.140Z,97622.66
2023-04-16T05:48:20.504Z,97603.34
2023-04-16T05:50:47.599Z,97620.13
2023-04-16T05:53:15.492Z,97618.25
2023-04-16T05:55:42.562Z,97617.94
2023-04-16T05:58:10.036Z,97618.94
2023-04-16T06:00:37.672Z,97613.69
2023-04-16T06:03:05.388Z,97618.44
2023-04-16T06:05:32.572Z,97608.13
2023-04-16T06:08:00.478Z,97616.38
2023-04-16T06:10:27.804Z,97624.84
2023-04-16T06:12:55.585Z,97620.44
2023-04-16T06:15:22.839Z,97620.63
2023-04-16T06:17:51.367Z,97619.25
2023-04-16T06:20:18.885Z,97619.47
2023-04-16T06:22:46.470Z,97612.47
2023-04-16T06:25:13.816Z,97609.97
2023-04-16T06:27:42.371Z,97610.13
2023-04-16T06:30:13.670Z,97609.28
2023-04-16T06:32:41.549Z,97617.19
2023-04-16T06:35:09.316Z,97604.03
2023-04-16T06:37:36.933Z,97606.88
2023-04-16T06:40:05.376Z,97603.69
2023-04-16T06:42:33.148Z,97601.38
2023-04-16T06:45:00.211Z,97602.94
2023-04-16T06:47:27.717Z,97607.94
2023-04-16T06:49:55.021Z,97603.88
2023-04-16T06:52:22.351Z,97620.69
2023-04-16T06:54:49.746Z,97627.25
2023-04-16T06:57:17.218Z,97624.56
2023-04-16T06:59:44.465Z,97623.19
2023-04-16T07:02:12.309Z,97618.25
2023-04-16T07:04:39.415Z,97627.16
2023-04-16T07:07:07.118Z,97621.91
2023-04-16T07:09:34.420Z,97617.16
2023-04-16T07:12:01.784Z,97622.72
2023-04-16T07:14:28.974Z,97619.06
2023-04-16T07:16:56.663Z,97624.00
2023-04-16T07:19:23.796Z,97628.44
2023-04-16T07:21:51.140Z,97632.28
2023-04-16T07:24:18.991Z,97640.47
2023-04-16T07:26:46.497Z,97630.78
2023-04-16T07:29:13.847Z,97627.50
2023-04-16T07:31:42.062Z,97623.69
2023-04-16T07:34:09.189Z,97627.03
2023-04-16T07:36:36.741Z,97631.13
2023-04-16T07:39:05.894Z,97630.44
2023-04-16T07:41:33.100Z,97611.50
2023-04-16T07:44:00.551Z,97605.91
2023-04-16T07:46:36.101Z,97606.06
2023-04-16T07:49:10.996Z,97607.59
2023-04-16T07:51:38.126Z,97604.41
2023-04-16T07:54:05.250Z,97582.38
2023-04-16T07:56:32.442Z,97607.09
2023-04-16T07:59:07.867Z,97609.31
2023-04-16T08:01:46.346Z,97606.06
2023-04-16T08:04:14.618Z,97592.03
2023-04-16T08:06:41.885Z,97584.00
2023-04-16T08:09:09.337Z,97580.13
2023-04-16T08:11:36.691Z,97569.25
2023-04-16T08:14:04.150Z,97564.97
2023-04-16T08:16:31.220Z,97578.03
2023-04-16T08:18:58.730Z,97589.41
2023-04-16T08:21:26.514Z,97580.03
2023-04-16T08:23:54.428Z,97574.78
2023-04-16T08:26:21.590Z,97567.97
2023-04-16T08:28:48.612Z,97570.84
2023-04-16T08:31:16.173Z,97569.97
2023-04-16T08:33:43.640Z,97575.91
2023-04-16T08:36:10.858Z,97573.38
2023-04-16T08:38:37.977Z,97565.56
2023-04-16T08:41:09.699Z,97560.31
2023-04-16T08:43:38.698Z,97568.41
2023-04-16T08:46:06.392Z,97570.25
2023-04-16T08:48:35.484Z,97564.59
2023-04-16T08:51:02.862Z,97556.06
2023-04-16T08:53:58.745Z,97555.78
2023-04-16T08:56:27.228Z,97553.63
2023-04-16T08:58:55.779Z,97560.63
2023-04-16T09:01:24.712Z,97558.44
2023-04-16T09:03:52.399Z,97549.44
2023-04-16T09:06:20.099Z,97541.28
2023-04-16T09:08:48.425Z,97544.84
2023-04-16T09:11:18.491Z,97545.84
2023-04-16T09:13:46.863Z,97526.91
2023-04-16T09:16:15.695Z,97542.63
2023-04-16T09:18:42.906Z,97544.47
2023-04-16T09:21:14.057Z,97534.44
2023-04-16T09:23:42.183Z,97536.75
2023-04-16T09:26:09.276Z,97525.81
2023-04-16T09:28:45.865Z,97525.38
2023-04-16T09:31:18.160Z,97524.97
2023-04-16T09:34:02.822Z,97525.78
2023-04-16T09:36:31.684Z,97516.19
2023-04-16T09:39:00.012Z,97506.28
2023-04-16T09:41:29.517Z,97515.88
2023-04-16T09:43:57.934Z,97517.78
2023-04-16T09:46:34.155Z,97505.16
2023-04-16T09:49:18.904Z,97511.19
2023-04-16T09:51:48.308Z,97521.59
2023-04-16T09:54:16.195Z,97507.47
2023-04-16T09:56:45.278Z,97509.19
2023-04-16T09:59:19.466Z,97498.38
2023-04-16T10:02:14.396Z,97493.09
2023-04-16T10:04:50.561Z,97491.53
2023-04-16T10:07:19.155Z,97495.16
2023-04-16T10:09:48.954Z,97490.41
2023-04-16T10:12:17.027Z,97498.47
2023-04-16T10:14:45.257Z,97490.63
2023-04-16T10:17:12.948Z,97495.75
2023-04-16T10:19:41.099Z,97480.84
2023-04-16T10:22:08.448Z,97485.91
2023-04-16T10:24:36.486Z,97484.47
2023-04-16T10:27:03.918Z,97478.59
2023-04-16T10:29:32.079Z,97479.78
2023-04-16T10:32:00.398Z,97481.41
2023-04-16T10:34:29.370Z,97478.25
2023-04-16T10:36:56.620Z,97476.09
2023-04-16T10:39:27.398Z,97481.75
2023-04-16T10:42:13.773Z,97471.25
2023-04-16T10:44:44.269Z,97472.06
2023-04-16T10:47:14.432Z,97474.56
2023-04-16T10:49:42.921Z,97464.69
2023-04-16T10:52:12.900Z,97463.78
2023-04-16T10:54:41.287Z,97459.06
2023-04-16T10:57:18.161Z,97468.03
2023-04-16T10:59:46.287Z,97456.47
2023-04-16T11:02:22.996Z,97452.63
2023-04-16T11:04:51.457Z,97457.91
2023-04-16T11:07:20.820Z,97465.09
2023-04-16T11:09:57.058Z,97456.59
2023-04-16T11:12:40.797Z,97454.66
2023-04-16T11:15:10.302Z,97451.81
2023-04-16T11:17:52.086Z,97448.91
2023-04-16T11:20:21.826Z,97449.94
2023-04-16T11:22:50.163Z,97457.09
2023-04-16T11:25:27.354Z,97443.41
2023-04-16T11:27:55.048Z,97453.31
2023-04-16T11:30:34.387Z,97451.22
2023-04-16T11:33:12.186Z,97451.22
2023-04-16T11:35:40.497Z,97458.47
2023-04-16T11:38:07.870Z,97449.09
2023-04-16T11:40:36.313Z,97456.69
2023-04-16T11:43:05.302Z,97443.44
2023-04-16T11:45:32.494Z,97446.16
2023-04-16T11:47:59.679Z,97435.63
2023-04-16T11:50:28.714Z,97426.72
2023-04-16T11:52:58.265Z,97447.34
2023-04-16T11:55:25.753Z,97426.94
2023-04-16T11:57:53.004Z,97431.84
2023-04-16T12:00:24.352Z,97444.66
2023-04-16T12:02:54.249Z,97424.03
2023-04-16T12:05:31.025Z,97433.75
2023-04-16T12:08:03.673Z,97425.97
2023-04-16T12:10:32.903Z,97428.88
2023-04-16T12:13:17.362Z,97427.41
2023-04-16T12:15:45.711Z,97431.03
2023-04-16T12:18:13.033Z,97432.00
2023-04-16T12:20:42.276Z,97415.22
2023-04-16T12:23:09.744Z,97416.81
2023-04-16T12:25:37.222Z,97426.88
2023-04-16T12:28:04.991Z,97413.19
2023-04-16T12:30:32.219Z,97427.47
2023-04-16T12:33:18.692Z,97404.38
2023-04-16T12:35:46.326Z,97392.19
2023-04-16T12:38:15.421Z,97406.94
2023-04-16T12:40:42.872Z,97400.69
2023-04-16T12:43:11.128Z,97405.97
2023-04-16T12:45:39.294Z,97390.56
2023-04-16T12:48:06.741Z,97395.22
2023-04-16T12:50:33.988Z,97390.56
2023-04-16T12:53:01.128Z,97385.69
2023-04-16T12:55:28.283Z,97389.97
2023-04-16T12:57:55.409Z,97376.97
2023-04-16T13:00:22.957Z,97380.88
2023-04-16T13:02:50.295Z,97390.19
2023-04-16T13:05:19.529Z,97372.53
2023-04-16T13:07:46.883Z,97378.84
2023-04-16T13:10:14.164Z,97377.50
2023-04-16T13:12:41.475Z,97374.25
2023-04-16T13:15:09.484Z,97365.00
2023-04-16T13:17:36.668Z,97363.09
2023-04-16T13:20:03.929Z,97353.66
2023-04-16T13:22:31.125Z,97351.84
2023-04-16T13:24:58.269Z,97347.66
2023-04-16T13:27:25.401Z,97338.81
2023-04-16T13:29:52.722Z,97346.88
2023-04-16T13:32:20.705Z,97345.13
2023-04-16T13:34:47.852Z,97343.31
2023-04-16T13:37:15.474Z,97325.69
2023-04-16T13:39:45.897Z,97333.41
2023-04-16T13:42:13.152Z,97325.34
2023-04-16T13:44:40.248Z,97325.75
2023-04-16T13:47:07.486Z,97318.22
2023-04-16T13:49:36.100Z,97329.47
2023-04-16T13:52:03.823Z,97321.84
2023-04-16T13:54:31.868Z,97316.09
2023-04-16T13:56:59.255Z,97314.44
2023-04-16T13:59:26.943Z,97324.56
2023-04-16T14:01:54.168Z,97312.25
2023-04-16T14:04:22.669Z,97326.50
2023-04-16T14:06:50.646Z,97308.75
2023-04-16T14:09:17.858Z,97312.06
2023-04-16T14:11:45.000Z,97321.06
2023-04-16T14:14:12.620Z,97322.81
2023-04-16T14:16:39.828Z,97310.69
2023-04-16T14:19:07.117Z,97322.50
2023-04-16T14:21:34.392Z,97316.88
2023-04-16T14:24:01.645Z,97327.09
2023-04-16T14:26:28.899Z,97324.75
2023-04-16T14:28:56.040Z,97323.88
2023-04-16T14:31:23.783Z,97327.41
2023-04-16T14:33:51.083Z,97325.31
2023-04-16T14:36:18.287Z,97333.06
2023-04-16T14:38:45.593Z,97322.19
2023-04-16T14:41:13.453Z,97323.97
2023-04-16T14:43:41.626Z,97325.88
2023-04-16T14:46:08.980Z,97325.88
2023-04-16T14:48:36.488Z,97314.53
2023-04-16T14:51:03.761Z,97329.06
2023-04-16T14:53:31.560Z,97330.94
2023-04-16T14:55:59.359Z,97319.19
2023-04-16T14:58:26.886Z,97324.00
2023-04-16T15:00:54.332Z,97312.22
2023-04-16T15:03:21.735Z,97311.59
2023-04-16T15:05:55.539Z,97307.41
2023-04-16T15:08:23.690Z,97305.94
2023-04-16T15:10:51.574Z,97301.28
2023-04-16T15:13:18.814Z,97301.28
2023-04-16T15:15:46.134Z,97290.16
2023-04-16T15:18:13.623Z,97300.47
2023-04-16T15:20:40.696Z,97301.09
2023-04-16T15:23:08.077Z,97304.47
2023-04-16T15:25:35.268Z,97308.84
2023-04-16T15:28:03.005Z,97296.88
2023-04-16T15:30:31.524Z,97303.41
2023-04-16T15:32:58.704Z,97312.84
2023-04-16T15:35:25.904Z,97312.22
2023-04-16T15:37:53.178Z,97307.16
2023-04-16T15:40:20.960Z,97310.47
2023-04-16T15:42:48.265Z,97313.63
2023-04-16T15:45:15.435Z,97305.09
2023-04-16T15:47:44.835Z,97318.97
2023-04-16T15:50:12.086Z,97317.66
2023-04-16T15:52:40.614Z,97311.78
2023-04-16T15:55:08.484Z,97313.88
2023-04-16T15:57:36.135Z,97320.22
2023-04-16T16:00:13.510Z,97310.97
2023-04-16T16:02:42.264Z,97313.69
2023-04-16T16:05:14.017Z,97311.41
2023-04-16T16:07:42.516Z,97311.59
2023-04-16T16:10:11.650Z,97313.47
2023-04-16T16:12:39.475Z,97318.47
2023-04-16T16:15:08.307Z,97306.25
2023-04-16T16:17:35.515Z,97294.94
2023-04-16T16:20:04.284Z,97306.72
2023-04-16T16:22:31.618Z,97303.72
2023-04-16T16:24:58.968Z,97286.94
2023-04-16T16:27:26.186Z,97294.94
2023-04-16T16:29:54.052Z,97298.09
2023-04-16T16:32:21.241Z,97300.97
2023-04-16T16:34:49.291Z,97301.69
2023-04-16T16:37:16.813Z,97295.03
2023-04-16T16:39:44.772Z,97297.31
2023-04-16T16:42:12.054Z,97289.09
2023-04-16T16:44:40.219Z,97302.91
2023-04-16T16:47:08.506Z,97298.28
2023-04-16T16:49:36.169Z,97308.47
2023-04-16T16:52:03.486Z,97311.53
2023-04-16T16:54:31.218Z,97316.34
2023-04-16T16:56:58.952Z,97317.84
2023-04-16T16:59:27.005Z,97308.41
2023-04-16T17:01:54.140Z,97315.22
2023-04-16T17:04:21.837Z,97312.00
2023-04-16T17:06:49.656Z,97317.31
2023-04-16T17:09:17.620Z,97317.97
2023-04-16T17:11:44.702Z,97314.16
2023-04-16T17:14:12.268Z,97305.38
2023-04-16T17:16:39.370Z,97320.94
2023-04-16T17:19:07.009Z,97324.78
2023-04-16T17:21:34.248Z,97320.03
2023-04-16T17:24:01.736Z,97331.06
2023-04-16T17:26:29.048Z,97329.91
2023-04-16T17:28:57.870Z,97314.25
2023-04-16T17:31:27.217Z,97332.38
2023-04-16T17:33:54.560Z,97326.41
2023-04-16T17:36:23.330Z,97327.56
2023-04-16T17:38:50.938Z,97323.22
2023-04-16T17:41:18.153Z,97338.66
2023-04-16T17:43:48.978Z,97337.78
2023-04-16T17:46:16.869Z,97345.31
2023-04-16T17:48:44.505Z,97341.50
2023-04-16T17:51:12.504Z,97340.94
2023-04-16T17:53:39.831Z,97346.53
2023-04-16T17:56:07.035Z,97339.91
2023-04-16T17:58:35.574Z,97337.19
2023-04-16T18:01:04.231Z,97342.03
2023-04-16T18:03:32.889Z,97334.47
2023-04-16T18:06:00.939Z,97336.00
2023-04-16T18:08:29.310Z,97352.84
2023-04-16T18:10:57.169Z,97354.00
2023-04-16T18:13:24.825Z,97359.59
2023-04-16T18:15:53.491Z,97365.88
2023-04-16T18:18:21.583Z,97350.78
2023-04-16T18:20:48.985Z,97360.66
2023-04-16T18:23:16.740Z,97360.84
2023-04-16T18:25:44.570Z,97362.97
2023-04-16T18:28:14.040Z,97370.09
2023-04-16T18:30:42.583Z,97359.97
2023-04-16T18:35:40.927Z,97374.06
2023-04-16T18:38:08.143Z,97363.41
2023-04-16T18:40:36.607Z,97361.97
2023-04-16T18:43:04.322Z,97372.09
2023-04-16T18:45:34.694Z,97358.34
2023-04-16T18:48:03.889Z,97368.13
2023-04-16T18:50:31.315Z,97363.16
2023-04-16T18:52:58.524Z,97358.44
2023-04-16T18:55:25.622Z,97354.69
2023-04-16T18:57:53.492Z,97359.41
2023-04-16T19:00:20.842Z,97359.72
2023-04-16T19:02:48.126Z,97360.63
2023-04-16T19:05:15.797Z,97366.41
2023-04-16T19:07:42.898Z,97348.63
2023-04-16T19:10:10.378Z,97365.78
2023-04-16T19:12:37.562Z,97367.84
2023-04-16T19:15:06.083Z,97360.03
2023-04-16T19:17:33.380Z,97353.53
2023-04-16T19:20:00.692Z,97358.69
2023-04-16T19:22:27.892Z,97352.50
2023-04-16T19:24:55.967Z,97345.59
2023-04-16T19:27:23.118Z,97348.81
2023-04-16T19:29:50.228Z,97353.50
2023-04-16T19:32:17.550Z,97351.91
2023-04-16T19:34:44.673Z,97347.66
2023-04-16T19:37:12.016Z,97354.41
2023-04-16T19:39:39.384Z,97355.00
2023-04-16T19:42:06.737Z,97357.88
2023-04-16T19:44:33.795Z,97356.19
2023-04-16T19:47:00.929Z,97358.91
2023-04-16T19:49:34.365Z,97359.84
2023-04-16T19:52:02.004Z,97353.38
2023-04-16T19:54:29.288Z,97347.00
2023-04-16T19:56:57.382Z,97349.34
2023-04-16T19:59:28.891Z,97342.25
2023-04-16T20:01:56.249Z,97340.72
2023-04-16T20:04:23.681Z,97343.81
2023-04-16T20:06:51.088Z,97344.75
2023-04-16T20:09:20.389Z,97339.84
2023-04-16T20:11:47.839Z,97351.84
2023-04-16T20:14:15.418Z,97346.72
2023-04-16T20:16:43.961Z,97340.53
2023-04-16T20:19:11.353Z,97334.53
2023-04-16T20:21:40.766Z,97333.81
2023-04-16T20:24:10.830Z,97329.22
2023-04-16T20:26:38.047Z,97325.91
2023-04-16T20:29:05.407Z,97333.09
2023-04-16T20:31:33.099Z,97321.25
2023-04-16T20:34:00.391Z,97327.03
2023-04-16T20:36:31.112Z,97339.25
2023-04-16T20:38:59.679Z,97330.53
2023-04-16T20:41:27.666Z,97322.84
2023-04-16T20:43:54.855Z,97319.09
2023-04-16T20:46:25.377Z,97320.13
2023-04-16T20:48:52.588Z,97318.31
2023-04-16T20:51:19.822Z,97319.00
2023-04-16T20:53:46.931Z,97325.56
2023-04-16T20:56:15.277Z,97332.50
2023-04-16T20:58:43.018Z,97331.34
2023-04-16T21:01:10.688Z,97332.56
2023-04-16T21:03:38.171Z,97330.91
2023-04-16T21:06:05.587Z,97329.00
2023-04-16T21:08:32.921Z,97322.28
2023-04-16T21:11:00.274Z,97327.31
2023-04-16T21:13:27.436Z,97320.75
2023-04-16T21:15:54.831Z,97316.94
2023-04-16T21:18:22.036Z,97320.66
2023-04-16T21:20:49.263Z,97312.25
2023-04-16T21:23:16.678Z,97324.59
2023-04-16T21:25:43.852Z,97324.34
2023-04-16T21:28:10.991Z,97308.88
2023-04-16T21:30:38.701Z,97333.53
2023-04-16T21:33:06.408Z,97327.06
2023-04-16T21:35:33.739Z,97334.63
2023-04-16T21:38:01.077Z,97320.03
2023-04-16T21:40:28.319Z,97334.72
2023-04-16T21:42:55.729Z,97323.53
2023-04-16T21:45:23.172Z,97331.03
2023-04-16T21:47:50.583Z,97332.34
2023-04-16T21:50:17.758Z,97327.31
2023-04-16T21:52:46.644Z,97328.41
2023-04-16T21:55:14.654Z,97313.81
2023-04-16T21:57:42.069Z,97317.81
2023-04-16T22:00:14.099Z,97327.38
2023-04-16T22:02:43.274Z,97324.28
2023-04-16T22:05:11.611Z,97319.41
2023-04-16T22:07:38.999Z,97320.06
2023-04-16T22:10:07.153Z,97316.59
2023-04-16T22:12:37.988Z,97310.59
2023-04-16T22:15:06.500Z,97318.75
2023-04-16T22:17:34.633Z,97312.19
2023-04-16T22:20:05.464Z,97323.34
2023-04-16T22:22:33.403Z,97332.56
2023-04-16T22:25:00.641Z,97328.53
2023-04-16T22:27:27.829Z,97329.09
2023-04-16T22:29:54.936Z,97330.56
2023-04-16T22:32:22.344Z,97319.25
2023-04-16T22:34:49.568Z,97338.63
2023-04-16T22:37:18.208Z,97331.19
2023-04-16T22:39:45.683Z,97345.59
2023-04-16T22:42:12.974Z,97324.00
2023-04-16T22:44:40.084Z,97335.88
2023-04-16T22:47:07.210Z,97329.56
2023-04-16T22:49:34.377Z,97333.22
2023-04-16T22:52:01.917Z,97339.41
2023-04-16T22:54:32.446Z,97344.31
2023-04-16T22:56:59.844Z,97333.53
2023-04-16T22:59:26.994Z,97332.22
2023-04-16T23:01:54.513Z,97333.53
2023-04-16T23:04:21.700Z,97327.78
2023-04-16T23:06:48.830Z,97332.97
2023-04-16T23:09:15.981Z,97329.03
2023-04-16T23:11:43.128Z,97332.78
2023-04-16T23:14:10.352Z,97325.84
2023-04-16T23:16:37.467Z,97332.78
2023-04-16T23:19:04.645Z,97336.72
2023-04-16T23:21:32.740Z,97333.25
2023-04-16T23:23:59.877Z,97326.41
2023-04-16T23:26:27.218Z,97321.16
2023-04-16T23:28:54.332Z,97324.34
2023-04-16T23:31:21.459Z,97327.63
2023-04-16T23:33:48.566Z,97325.16
2023-04-16T23:36:16.037Z,97324.72
2023-04-16T23:38:43.100Z,97316.50
2023-04-16T23:41:10.221Z,97318.75
2023-04-16T23:43:40.268Z,97306.63
2023-04-16T23:46:07.881Z,97312.34
2023-04-16T23:48:35.063Z,97315.16
2023-04-16T23:51:02.207Z,97319.75
2023-04-16T23:53:29.285Z,97318.25
2023-04-16T23:55:56.463Z,97302.13
2023-04-16T23:58:23.663Z,97312.53
